Time;durP1;ratioP1;P1;durP2;ratioP2;P2;SDS_P1;SDS_P2;PMS_P1;PMS_P2;Temp;Humidity;BMP_temperature;BMP_pressure;BME280_temperature;BME280_humidity;BME280_pressure;Samples;Min_cycle;Max_cycle;Signal;HPM_P1;HPM_P2
2021/01/15 00:04:43;;;;;;;21.30;10.53;;;;;;;-2.57;83.89;98561.98;249961;1148;23046;-78
2021/01/15 00:09:45;;;;;;;19.43;9.57;;;;;;;-2.60;83.55;98565.83;249978;1149;22955;-76
2021/01/15 00:14:47;;;;;;;16.93;9.87;;;;;;;-2.63;83.37;98568.87;249966;1151;24587;-78
2021/01/15 00:19:49;;;;;;;19.67;9.80;;;;;;;-2.64;83.45;98564.63;250095;1153;22908;-78
2021/01/15 00:24:51;;;;;;;21.37;11.33;;;;;;;-2.67;83.69;98575.55;250614;1147;27420;-78
2021/01/15 00:29:53;;;;;;;22.53;10.90;;;;;;;-2.66;83.88;98582.41;250121;1148;22967;-79
2021/01/15 00:34:56;;;;;;;23.43;11.87;;;;;;;-2.66;83.84;98598.14;250291;1148;23047;-78
2021/01/15 00:39:58;;;;;;;24.30;11.50;;;;;;;-2.67;83.68;98603.56;249872;1150;23236;-77
2021/01/15 00:45:00;;;;;;;22.43;11.20;;;;;;;-2.66;84.19;98611.25;250247;1148;23074;-77
2021/01/15 00:50:03;;;;;;;24.97;10.70;;;;;;;-2.64;83.50;98624.95;249955;1153;22995;-78
2021/01/15 00:55:07;;;;;;;20.43;11.10;;;;;;;-2.68;83.77;98620.33;249996;1148;23103;-77
2021/01/15 01:00:09;;;;;;;21.77;10.80;;;;;;;-2.66;83.45;98626.98;250169;1148;26369;-76
2021/01/15 01:05:36;;;;;;;22.70;11.27;;;;;;;-2.65;83.44;98638.27;250549;1147;22944;-77
2021/01/15 01:10:38;;;;;;;24.93;12.20;;;;;;;-2.66;83.75;98634.86;250169;1148;22980;-75
2021/01/15 01:15:41;;;;;;;22.77;11.37;;;;;;;-2.67;83.15;98635.03;249940;1151;23505;-77
2021/01/15 01:20:43;;;;;;;24.95;12.70;;;;;;;-2.71;83.73;98633.83;249943;1155;22962;-76
2021/01/15 01:25:45;;;;;;;27.43;12.87;;;;;;;-2.73;84.08;98631.42;250103;1151;23110;-78
2021/01/15 01:30:47;;;;;;;25.57;11.40;;;;;;;-2.76;83.73;98632.66;249998;1148;23113;-77
2021/01/15 01:35:53;;;;;;;22.10;11.43;;;;;;;-2.76;83.14;98643.15;249970;1148;23090;-78
2021/01/15 01:40:55;;;;;;;23.23;11.60;;;;;;;-2.77;83.48;98648.56;249831;1148;22974;-77
2021/01/15 01:46:20;;;;;;;22.17;10.43;;;;;;;-2.75;83.62;98649.19;250009;1150;22976;-78
2021/01/15 01:51:23;;;;;;;19.40;9.53;;;;;;;-2.76;83.02;98637.91;250049;1148;22913;-78
2021/01/15 01:56:27;;;;;;;19.60;10.17;;;;;;;-2.74;83.80;98635.08;249705;1148;25989;-78
2021/01/15 02:01:29;;;;;;;19.27;8.97;;;;;;;-2.75;83.29;98634.25;249892;1150;22966;-78
2021/01/15 02:06:32;;;;;;;14.47;7.93;;;;;;;-2.75;83.47;98629.00;250012;1148;23336;-78
2021/01/15 02:11:46;;;;;;;16.53;8.07;;;;;;;-2.76;82.94;98634.45;250010;1148;22966;-75
2021/01/15 02:16:50;;;;;;;20.33;10.60;;;;;;;-2.80;82.97;98636.70;249985;1148;22963;-78
2021/01/15 02:22:15;;;;;;;19.53;9.23;;;;;;;-2.80;83.23;98646.36;250064;1153;22973;-79
2021/01/15 02:27:59;;;;;;;18.93;10.27;;;;;;;-2.78;83.06;98652.22;250078;1148;23021;-79
2021/01/15 02:33:22;;;;;;;21.63;11.03;;;;;;;-2.76;83.41;98644.94;249911;1148;23097;-77
2021/01/15 02:38:53;;;;;;;21.07;10.87;;;;;;;-2.78;83.34;98646.98;250304;1148;22946;-77
2021/01/15 02:44:00;;;;;;;;;;;;;;;-2.79;82.96;98648.78;250222;1148;23061;-78
2021/01/15 02:49:05;;;;;;;27.13;11.97;;;;;;;-2.79;83.51;98661.09;250388;1152;21593;-76
2021/01/15 02:54:08;;;;;;;21.70;11.67;;;;;;;-2.80;83.33;98648.98;250040;1147;24599;-76
2021/01/15 02:59:10;;;;;;;24.43;11.50;;;;;;;-2.79;83.12;98655.84;250264;1148;23389;-77
2021/01/15 03:04:41;;;;;;;22.97;11.53;;;;;;;-2.82;83.03;98649.19;250123;1148;23119;-77
2021/01/15 03:09:47;;;;;;;20.48;9.38;;;;;;;-2.81;83.11;98653.44;250056;1148;22953;-78
2021/01/15 03:14:52;;;;;;;21.03;10.07;;;;;;;-2.84;83.55;98645.98;250019;1148;23059;-78
2021/01/15 03:19:55;;;;;;;18.57;9.57;;;;;;;-2.85;83.72;98646.98;249912;1148;23122;-78
2021/01/15 03:25:00;;;;;;;19.27;9.90;;;;;;;-2.88;83.62;98650.02;249790;1148;22964;-77
2021/01/15 03:30:03;;;;;;;17.27;9.07;;;;;;;-2.88;83.75;98649.19;250278;1152;22952;-77
2021/01/15 03:35:06;;;;;;;19.97;10.00;;;;;;;-2.88;83.14;98649.19;249888;1148;22964;-77
2021/01/15 03:40:09;;;;;;;19.30;10.20;;;;;;;-2.92;83.56;98648.81;250028;1152;22941;-81
2021/01/15 03:45:12;;;;;;;18.53;10.00;;;;;;;-2.95;83.32;98644.78;250233;1148;22987;-78
2021/01/15 03:50:14;;;;;;;15.27;8.07;;;;;;;-2.95;83.39;98655.27;249955;1148;22948;-77
2021/01/15 03:55:16;;;;;;;19.20;9.83;;;;;;;-2.93;83.55;98649.81;249813;1148;23094;-77
2021/01/15 04:00:19;;;;;;;16.30;9.25;;;;;;;-2.97;83.42;98654.64;250254;1148;22999;-77
2021/01/15 04:05:21;;;;;;;18.00;8.80;;;;;;;-2.99;83.26;98656.67;250051;1148;23014;-78
2021/01/15 04:10:23;;;;;;;19.40;9.33;;;;;;;-2.96;83.31;98660.71;250349;1148;24573;-76
2021/01/15 04:15:25;;;;;;;15.73;7.67;;;;;;;-2.97;83.58;98656.47;249932;1148;22963;-77
2021/01/15 04:20:27;;;;;;;15.90;8.43;;;;;;;-2.96;83.20;98647.61;250088;1153;22967;-78
2021/01/15 04:25:29;;;;;;;15.63;9.10;;;;;;;-2.97;83.45;98646.78;250120;1148;22960;-76
2021/01/15 04:30:32;;;;;;;14.87;8.43;;;;;;;-2.96;83.44;98647.61;250297;1152;23100;-79
2021/01/15 04:35:35;;;;;;;15.33;7.83;;;;;;;-2.97;83.66;98636.30;249997;1148;22970;-78
2021/01/15 04:40:38;;;;;;;14.57;7.90;;;;;;;-3.01;83.62;98655.27;249897;1148;23194;-77
2021/01/15 04:45:40;;;;;;;15.23;8.17;;;;;;;-3.01;83.10;98644.78;249841;1148;22953;-76
2021/01/15 04:50:44;;;;;;;16.43;8.37;;;;;;;-3.03;83.65;98644.98;250534;1152;22970;-78
2021/01/15 04:55:49;;;;;;;14.03;7.53;;;;;;;-3.04;83.06;98656.47;250138;1149;24581;-76
2021/01/15 05:00:57;;;;;;;14.65;7.20;;;;;;;-3.04;83.20;98660.91;250068;1148;25992;-77
2021/01/15 05:06:00;;;;;;;14.00;8.07;;;;;;;-3.04;83.30;98661.71;250010;1148;22953;-81
2021/01/15 05:11:03;;;;;;;15.50;8.20;;;;;;;-3.05;83.48;98656.67;250223;1147;22945;-76
2021/01/15 05:16:10;;;;;;;16.77;8.17;;;;;;;-3.05;83.07;98664.53;249963;1148;23082;-78
2021/01/15 05:21:13;;;;;;;16.65;7.85;;;;;;;-3.10;83.30;98652.84;250003;1150;24723;-76
2021/01/15 05:26:18;;;;;;;14.20;6.97;;;;;;;-3.11;83.10;98651.22;249860;1148;28295;-78
2021/01/15 05:31:23;;;;;;;14.63;7.47;;;;;;;-3.12;83.07;98648.81;249942;1148;22970;-76
2021/01/15 05:36:30;;;;;;;16.47;7.83;;;;;;;-3.13;83.11;98662.94;249814;1148;22975;-77
2021/01/15 05:41:34;;;;;;;14.83;7.70;;;;;;;-3.14;83.06;98669.98;250116;1153;22939;-77
2021/01/15 05:46:46;;;;;;;15.30;7.77;;;;;;;-3.17;82.97;98677.45;250154;1153;22949;-77
2021/01/15 05:51:48;;;;;;;15.07;7.87;;;;;;;-3.20;82.70;98683.89;249941;1148;22967;-76
2021/01/15 05:56:51;;;;;;;12.90;6.47;;;;;;;-3.18;82.72;98678.45;250008;1148;23047;-78
2021/01/15 06:02:05;;;;;;;15.50;7.80;;;;;;;-3.25;82.85;98681.06;249899;1150;22993;-77
2021/01/15 06:07:08;;;;;;;15.03;8.10;;;;;;;-3.28;82.92;98691.95;249995;1148;22968;-76
2021/01/15 06:12:13;;;;;;;14.27;7.27;;;;;;;-3.33;82.75;98691.73;250103;1148;22995;-75
2021/01/15 06:17:20;;;;;;;14.93;7.60;;;;;;;-3.31;83.20;98698.39;249940;1148;26107;-74
2021/01/15 06:22:33;;;;;;;15.70;7.27;;;;;;;-3.32;82.78;98715.11;249996;1152;23298;-75
2021/01/15 06:27:46;;;;;;;15.37;7.13;;;;;;;-3.46;81.27;98731.81;250062;1148;23335;-80
2021/01/15 06:32:48;;;;;;;15.73;6.93;;;;;;;-3.65;80.04;98738.60;249824;1148;23109;-75
2021/01/15 06:38:04;;;;;;;17.03;7.27;;;;;;;-3.85;79.99;98743.78;249955;1148;22970;-77
2021/01/15 06:43:19;;;;;;;14.67;7.87;;;;;;;-4.03;79.87;98747.74;249822;1148;23122;-77
2021/01/15 06:48:33;;;;;;;17.57;7.47;;;;;;;-4.15;79.56;98764.98;250072;1148;22976;-78
2021/01/15 06:53:38;;;;;;;11.93;6.53;;;;;;;-4.24;79.60;98766.13;250409;1148;22967;-79
2021/01/15 06:58:42;;;;;;;15.20;7.40;;;;;;;-4.31;79.20;98785.22;251121;1148;23081;-75
2021/01/15 07:04:04;;;;;;;17.83;7.67;;;;;;;-4.36;79.13;98794.64;250795;1147;23713;-82
2021/01/15 07:09:08;;;;;;;17.33;8.23;;;;;;;-4.37;79.23;98813.94;250584;1148;22945;-79
2021/01/15 07:14:13;;;;;;;17.67;7.63;;;;;;;-4.32;79.38;98812.36;250701;1148;22999;-76
2021/01/15 07:19:34;;;;;;;12.47;6.70;;;;;;;-4.24;79.41;98823.67;250803;1148;22951;-75
2021/01/15 07:24:39;;;;;;;14.80;7.67;;;;;;;-4.14;78.90;98811.05;250550;1147;22995;-77
2021/01/15 07:29:48;;;;;;;13.60;6.60;;;;;;;-4.03;78.72;98812.34;250384;1147;22945;-77
2021/01/15 07:34:56;;;;;;;12.60;6.93;;;;;;;-3.93;78.54;98819.84;250465;1148;27431;-76
2021/01/15 07:39:58;;;;;;;23.10;9.35;;;;;;;-3.82;78.45;98811.44;250224;1147;26392;-77
2021/01/15 07:45:00;;;;;;;15.87;8.33;;;;;;;-3.80;78.03;98812.87;250687;1147;23142;-76
2021/01/15 07:50:05;;;;;;;22.00;9.90;;;;;;;-3.68;78.10;98825.41;250404;1148;22946;-76
2021/01/15 07:55:08;;;;;;;16.30;7.33;;;;;;;-3.61;77.23;98821.83;250461;1147;23033;-76
2021/01/15 08:00:24;;;;;;;15.23;7.70;;;;;;;-3.43;77.74;98833.56;250541;1147;22933;-77
2021/01/15 08:05:26;;;;;;;13.97;7.07;;;;;;;-3.19;77.54;98832.26;250550;1147;22953;-76
2021/01/15 08:10:28;;;;;;;16.17;6.87;;;;;;;-3.01;77.60;98838.73;250406;1148;23437;-77
2021/01/15 08:15:32;;;;;;;13.73;7.07;;;;;;;-2.79;76.77;98839.39;250354;1148;22952;-76
2021/01/15 08:20:35;;;;;;;13.87;6.47;;;;;;;-2.55;76.82;98837.19;250490;1148;22929;-77
2021/01/15 08:25:37;;;;;;;15.70;6.40;;;;;;;-2.34;76.54;98839.60;250917;1148;23004;-76
2021/01/15 08:30:40;;;;;;;15.87;7.23;;;;;;;-2.19;75.63;98836.77;250465;1147;27018;-77
2021/01/15 08:35:43;;;;;;;17.03;8.43;;;;;;;-2.05;75.40;98836.77;252668;1148;22951;-75
2021/01/15 08:40:45;;;;;;;17.47;8.37;;;;;;;-1.95;74.97;98837.14;250540;1147;23073;-77
2021/01/15 08:45:48;;;;;;;19.00;7.97;;;;;;;-1.78;74.63;98843.55;250562;1148;23351;-77
2021/01/15 08:50:53;;;;;;;21.03;9.70;;;;;;;-1.61;74.85;98850.99;250341;1148;23419;-79
2021/01/15 08:55:55;;;;;;;18.57;8.20;;;;;;;-1.61;73.63;98878.09;250188;1148;22945;-80
2021/01/15 09:00:58;;;;;;;19.13;8.73;;;;;;;-1.58;73.42;98885.55;250318;1148;22974;-77
2021/01/15 09:06:03;;;;;;;20.75;9.10;;;;;;;-1.35;73.25;98888.73;250205;1148;22973;-76
2021/01/15 09:11:05;;;;;;;18.95;8.55;;;;;;;-1.30;72.92;98879.20;250326;1147;26101;-76
2021/01/15 09:16:16;;;;;;;19.03;8.57;;;;;;;-1.24;73.25;98894.13;250586;1148;23027;-79
2021/01/15 09:21:20;;;;;;;19.30;9.10;;;;;;;-1.10;72.62;98904.60;250309;1148;22948;-76
2021/01/15 09:26:22;;;;;;;18.07;9.63;;;;;;;-0.94;72.65;98911.19;250514;1147;26572;-76
2021/01/15 09:31:24;;;;;;;18.17;9.13;;;;;;;-0.86;71.80;98919.64;250406;1147;22967;-74
2021/01/15 09:36:27;;;;;;;15.03;8.33;;;;;;;-0.93;71.87;98920.70;250162;1147;22939;-76
2021/01/15 09:41:30;;;;;;;17.35;8.20;;;;;;;-0.93;70.84;98929.39;250498;1147;22971;-75
2021/01/15 09:46:32;;;;;;;21.73;9.67;;;;;;;-1.10;70.04;98933.52;250503;1148;22949;-76
2021/01/15 09:51:34;;;;;;;23.20;11.03;;;;;;;-1.21;70.15;98935.77;250618;1147;23063;-77
2021/01/15 09:56:43;;;;;;;27.63;12.80;;;;;;;-1.19;70.21;98921.61;250614;1148;23001;-75
2021/01/15 10:01:47;;;;;;;26.20;11.90;;;;;;;-1.10;70.85;98923.80;250679;1148;22952;-75
2021/01/15 10:06:49;;;;;;;21.33;9.53;;;;;;;-0.97;69.41;98925.56;252755;1147;23073;-75
2021/01/15 10:11:51;;;;;;;33.40;13.37;;;;;;;-0.93;69.90;98934.65;252110;1148;22948;-76
2021/01/15 10:16:55;;;;;;;34.27;15.17;;;;;;;-0.89;69.77;98924.53;250291;1147;22984;-76
2021/01/15 10:21:57;;;;;;;36.80;14.65;;;;;;;-0.87;69.75;98917.22;250726;1148;23033;-74
2021/01/15 10:26:59;;;;;;;29.70;13.20;;;;;;;-0.78;69.83;98930.97;250569;1147;22977;-76
2021/01/15 10:32:02;;;;;;;25.30;11.23;;;;;;;-0.73;69.20;98924.05;250695;1147;22977;-78
2021/01/15 10:37:04;;;;;;;24.93;11.13;;;;;;;-0.71;68.64;98921.20;250211;1148;22945;-74
2021/01/15 10:42:07;;;;;;;18.10;9.70;;;;;;;-0.59;69.05;98910.80;250165;1147;22949;-76
2021/01/15 10:47:14;;;;;;;17.57;7.63;;;;;;;-0.57;68.78;98900.89;250250;1148;22961;-74
2021/01/15 10:52:16;;;;;;;20.30;8.80;;;;;;;-0.47;68.71;98906.48;250292;1147;22964;-76
2021/01/15 10:57:19;;;;;;;17.07;8.30;;;;;;;-0.33;67.91;98898.50;250261;1148;22973;-75
2021/01/15 11:02:22;;;;;;;19.60;9.50;;;;;;;-0.28;68.22;98904.73;250415;1148;25999;-75
2021/01/15 11:07:24;;;;;;;18.40;9.80;;;;;;;-0.19;67.95;98892.90;249990;1148;23008;-77
2021/01/15 11:12:26;;;;;;;20.93;10.30;;;;;;;-0.40;65.35;98890.64;250110;1151;23004;-84
2021/01/15 11:17:28;;;;;;;23.90;11.00;;;;;;;-0.63;65.51;98885.93;250225;1148;22963;-76
2021/01/15 11:22:30;;;;;;;23.93;11.67;;;;;;;-0.52;67.25;98888.70;250386;1147;23049;-76
2021/01/15 11:27:33;;;;;;;22.33;10.93;;;;;;;-0.39;66.46;98876.47;249925;1148;22969;-76
2021/01/15 11:32:43;;;;;;;19.70;10.07;;;;;;;-0.21;66.94;98876.52;250061;1148;24821;-76
2021/01/15 11:37:45;;;;;;;21.57;9.83;;;;;;;-0.08;66.56;98866.91;250200;1148;25870;-77
2021/01/15 11:42:47;;;;;;;18.80;9.30;;;;;;;-0.21;65.49;98846.73;249942;1148;23260;-75
2021/01/15 11:47:53;;;;;;;23.87;11.70;;;;;;;-0.37;64.53;98862.05;249840;1148;24519;-76
2021/01/15 11:52:57;;;;;;;21.90;10.13;;;;;;;-0.46;63.92;98865.16;250084;1148;22976;-75
2021/01/15 11:58:00;;;;;;;17.00;8.47;;;;;;;-0.58;62.21;98849.27;250330;1148;23008;-75
2021/01/15 12:03:02;;;;;;;15.17;7.03;;;;;;;-0.60;63.51;98838.95;250251;1147;23026;-75
2021/01/15 12:08:04;;;;;;;14.20;7.70;;;;;;;-0.56;65.18;98834.05;250484;1148;23905;-75
2021/01/15 12:13:06;;;;;;;17.33;7.63;;;;;;;-0.40;64.77;98840.63;250410;1148;23017;-76
2021/01/15 12:18:12;;;;;;;16.40;8.00;;;;;;;-0.51;62.21;98836.86;250407;1148;23433;-74
2021/01/15 12:23:15;;;;;;;15.63;7.83;;;;;;;-0.64;62.45;98834.31;250237;1148;23852;-77
2021/01/15 12:28:18;;;;;;;13.47;6.83;;;;;;;-0.70;62.39;98842.06;250289;1148;22997;-75
2021/01/15 12:33:21;;;;;;;10.87;5.30;;;;;;;-0.62;63.07;98833.09;250596;1148;22973;-74
2021/01/15 12:38:24;;;;;;;13.80;6.27;;;;;;;-0.56;63.36;98840.14;249931;1148;22939;-76
2021/01/15 12:43:26;;;;;;;9.30;4.25;;;;;;;-0.49;61.41;98828.75;250410;1148;22948;-74
2021/01/15 12:48:28;;;;;;;8.90;4.90;;;;;;;-0.51;62.38;98821.07;251270;1148;23369;-75
2021/01/15 12:53:30;;;;;;;12.03;6.40;;;;;;;-0.62;62.39;98821.77;250325;1147;25873;-74
2021/01/15 12:58:32;;;;;;;7.15;3.90;;;;;;;-0.63;63.21;98834.13;250638;1147;23038;-74
2021/01/15 13:03:34;;;;;;;7.50;3.97;;;;;;;-0.73;63.03;98846.94;250429;1148;23035;-75
2021/01/15 13:08:36;;;;;;;7.97;4.17;;;;;;;-0.87;63.50;98849.66;249989;1148;22976;-76
2021/01/15 13:13:38;;;;;;;6.50;3.67;;;;;;;-0.90;63.33;98849.27;250087;1148;26404;-75
2021/01/15 13:18:41;;;;;;;11.17;5.13;;;;;;;-0.94;63.21;98853.34;250325;1148;22922;-77
2021/01/15 13:23:43;;;;;;;9.75;5.15;;;;;;;-1.04;64.03;98845.91;250083;1148;25230;-80
2021/01/15 13:28:45;;;;;;;14.37;6.37;;;;;;;-1.10;63.74;98852.02;250377;1147;23026;-76
2021/01/15 13:33:47;;;;;;;9.40;4.63;;;;;;;-1.19;63.57;98861.15;250117;1148;23043;-76
2021/01/15 13:38:49;;;;;;;10.57;5.00;;;;;;;-1.26;64.79;98869.89;250266;1146;23060;-75
2021/01/15 13:43:52;;;;;;;13.70;6.30;;;;;;;-1.29;64.30;98861.59;250450;1148;22932;-78
2021/01/15 13:48:55;;;;;;;15.13;6.40;;;;;;;-1.41;65.24;98875.39;250276;1148;23017;-77
2021/01/15 13:53:58;;;;;;;13.85;5.55;;;;;;;-1.58;63.45;98859.28;250567;1148;22951;-78
2021/01/15 13:59:00;;;;;;;6.30;2.37;;;;;;;-1.69;63.49;98872.23;250544;1148;23433;-78
2021/01/15 14:04:02;;;;;;;3.60;1.97;;;;;;;-1.68;63.79;98887.78;250429;1147;22949;-78
2021/01/15 14:09:05;;;;;;;9.60;4.67;;;;;;;-1.70;63.79;98871.44;250533;1148;22778;-79
2021/01/15 14:14:07;;;;;;;9.60;4.77;;;;;;;-1.93;63.72;98874.49;250816;1148;22952;-79
2021/01/15 14:19:10;;;;;;;10.75;5.00;;;;;;;-2.22;62.98;98847.69;250811;1147;23105;-80
2021/01/15 14:24:12;;;;;;;9.80;5.17;;;;;;;-2.50;63.22;98845.28;251053;1147;23028;-79
2021/01/15 14:29:14;;;;;;;15.00;6.30;;;;;;;-2.65;64.33;98841.01;250745;1148;22951;-78
2021/01/15 14:34:16;;;;;;;17.63;7.93;;;;;;;-2.64;65.14;98858.37;250513;1148;22923;-78
2021/01/15 14:39:18;;;;;;;11.17;5.83;;;;;;;-2.62;65.19;98864.20;250443;1148;22980;-78
2021/01/15 14:44:20;;;;;;;13.93;5.80;;;;;;;-2.72;65.97;98857.76;250605;1147;23006;-79
2021/01/15 14:49:22;;;;;;;13.00;5.70;;;;;;;-2.83;66.17;98857.32;250472;1148;23006;-77
2021/01/15 14:54:24;;;;;;;14.40;6.10;;;;;;;-2.86;66.71;98846.44;250499;1148;22926;-77
2021/01/15 14:59:43;;;;;;;10.40;4.20;;;;;;;-2.88;65.98;98858.92;251604;1148;26031;-81
2021/01/15 15:04:47;;;;;;;6.33;3.10;;;;;;;-2.99;65.47;98869.00;252940;1148;22893;-80
2021/01/15 15:09:49;;;;;;;11.63;4.97;;;;;;;-3.06;65.62;98873.41;250793;1148;25905;-78
2021/01/15 15:14:51;;;;;;;19.73;7.43;;;;;;;-3.16;66.10;98873.78;251167;1148;22912;-80
2021/01/15 15:19:54;;;;;;;13.03;6.27;;;;;;;-3.25;68.22;98895.91;250888;1148;23045;-80
2021/01/15 15:24:56;;;;;;;14.13;7.10;;;;;;;-3.35;69.15;98885.00;251720;1147;22952;-80
2021/01/15 15:30:00;;;;;;;16.53;7.50;;;;;;;-3.41;69.43;98880.52;250816;1148;22918;-81
2021/01/15 15:35:02;;;;;;;18.67;8.47;;;;;;;-3.52;70.09;98866.98;251204;1148;22887;-78
2021/01/15 15:40:05;;;;;;;17.43;9.10;;;;;;;-3.59;70.78;98870.59;250572;1148;22945;-80
2021/01/15 15:45:08;;;;;;;15.43;7.93;;;;;;;-3.63;71.56;98870.95;250399;1148;22959;-80
2021/01/15 15:50:12;;;;;;;17.57;8.67;;;;;;;-3.75;71.83;98869.88;250939;1148;22977;-80
2021/01/15 15:55:14;;;;;;;14.70;6.95;;;;;;;-3.89;72.57;98858.55;250673;1148;22945;-79
2021/01/15 16:00:17;;;;;;;20.40;8.77;;;;;;;-4.10;72.29;98853.36;250752;1148;22946;-79
2021/01/15 16:05:20;;;;;;;13.17;7.00;;;;;;;-4.25;73.06;98867.34;250586;1148;22966;-79
2021/01/15 16:10:22;;;;;;;13.50;5.83;;;;;;;-4.40;73.43;98879.70;250736;1148;22969;-80
2021/01/15 16:15:25;;;;;;;12.60;6.97;;;;;;;-4.47;73.93;98869.98;250800;1148;23042;-80
2021/01/15 16:20:27;;;;;;;17.10;8.70;;;;;;;-4.47;74.16;98874.41;250702;1148;23028;-80
2021/01/15 16:25:30;;;;;;;20.37;9.57;;;;;;;-4.39;74.62;98879.52;250719;1148;23077;-79
2021/01/15 16:30:33;;;;;;;18.27;9.90;;;;;;;-4.41;74.80;98885.92;250420;1148;22949;-81
2021/01/15 16:35:35;;;;;;;17.87;8.93;;;;;;;-4.45;74.86;98887.30;250953;1151;23049;-80
2021/01/15 16:40:37;;;;;;;25.35;9.00;;;;;;;-4.51;75.09;98878.39;250363;1148;22970;-79
2021/01/15 16:45:40;;;;;;;19.17;8.77;;;;;;;-4.46;75.53;98889.11;250636;1148;23422;-77
2021/01/15 16:50:42;;;;;;;26.83;12.83;;;;;;;-4.47;75.30;98877.83;250533;1148;26024;-80
2021/01/15 16:55:45;;;;;;;30.80;13.80;;;;;;;-4.47;75.39;98890.90;250584;1148;23034;-81
2021/01/15 17:00:47;;;;;;;31.93;14.57;;;;;;;-4.37;75.65;98902.86;250329;1148;22941;-77
2021/01/15 17:05:49;;;;;;;30.40;13.10;;;;;;;-4.32;76.07;98906.53;250296;1148;26498;-81
2021/01/15 17:10:51;;;;;;;29.07;13.27;;;;;;;-4.27;75.79;98913.00;250122;1147;22952;-80
2021/01/15 17:15:53;;;;;;;25.50;12.03;;;;;;;-4.26;76.14;98914.62;250611;1148;22995;-79
2021/01/15 17:20:55;;;;;;;22.20;10.60;;;;;;;-4.21;76.33;98914.86;250424;1148;27259;-78
2021/01/15 17:25:57;;;;;;;35.40;13.63;;;;;;;-4.21;76.39;98909.63;250215;1148;22946;-78
2021/01/15 17:31:02;;;;;;;30.90;12.90;;;;;;;-4.27;76.26;98905.16;250165;1148;22896;-78
2021/01/15 17:36:06;;;;;;;26.50;11.90;;;;;;;-4.31;76.41;98913.39;250349;1148;22965;-79
2021/01/15 17:41:09;;;;;;;27.80;11.40;;;;;;;-4.22;76.48;98923.72;250331;1148;24602;-82
2021/01/15 17:46:13;;;;;;;28.27;10.60;;;;;;;-4.23;76.57;98914.25;250598;1148;22907;-80
2021/01/15 17:51:16;;;;;;;26.63;12.60;;;;;;;-4.25;76.38;98905.77;250623;1148;22979;-79
2021/01/15 17:56:21;;;;;;;28.00;12.53;;;;;;;-4.18;77.10;98906.65;250175;1148;23049;-77
2021/01/15 18:01:27;;;;;;;29.40;13.60;;;;;;;-4.24;76.92;98900.37;250246;1148;23035;-78
2021/01/15 18:06:34;;;;;;;35.95;16.65;;;;;;;-4.34;76.75;98897.25;250525;1148;22982;-80
2021/01/15 18:11:36;;;;;;;35.97;16.23;;;;;;;-4.39;77.14;98907.45;250498;1148;22967;-79
2021/01/15 18:16:39;;;;;;;46.13;17.00;;;;;;;-4.33;77.28;98902.28;250214;1148;23126;-79
2021/01/15 18:21:43;;;;;;;35.83;14.83;;;;;;;-4.27;77.03;98902.54;250541;1148;22971;-80
2021/01/15 18:26:46;;;;;;;45.33;18.30;;;;;;;-4.39;76.71;98897.82;250174;1148;23266;-80
2021/01/15 18:31:48;;;;;;;39.43;15.30;;;;;;;-4.30;77.98;98907.13;250565;1148;22952;-79
2021/01/15 18:36:50;;;;;;;35.87;12.80;;;;;;;-4.20;77.71;98911.25;250638;1148;22949;-78
2021/01/15 18:41:54;;;;;;;25.00;9.55;;;;;;;-4.17;77.94;98911.69;250393;1148;24609;-79
2021/01/15 18:46:56;;;;;;;27.33;11.53;;;;;;;-4.21;77.42;98909.63;250346;1148;22982;-79
2021/01/15 18:51:59;;;;;;;25.13;11.47;;;;;;;-4.26;77.75;98915.42;250588;1148;22997;-79
2021/01/15 18:57:02;;;;;;;27.57;11.57;;;;;;;-4.31;77.72;98912.55;250378;1148;22967;-79
2021/01/15 19:02:04;;;;;;;29.93;13.83;;;;;;;-4.41;77.50;98920.72;250255;1151;22977;-79
2021/01/15 19:07:07;;;;;;;32.77;12.40;;;;;;;-4.53;77.36;98919.63;250274;1148;22969;-77
2021/01/15 19:12:12;;;;;;;26.87;12.27;;;;;;;-4.61;77.78;98931.00;250190;1148;22948;-78
2021/01/15 19:17:14;;;;;;;27.70;11.67;;;;;;;-4.66;77.81;98930.73;250596;1148;23353;-79
2021/01/15 19:22:17;;;;;;;29.60;13.30;;;;;;;-4.70;78.23;98938.16;250106;1148;22971;-79
2021/01/15 19:27:20;;;;;;;27.07;12.97;;;;;;;-4.69;78.42;98944.19;250321;1148;22966;-81
2021/01/15 19:32:22;;;;;;;31.80;14.33;;;;;;;-4.71;78.36;98941.77;250331;1148;22909;-77
2021/01/15 19:37:24;;;;;;;29.73;13.30;;;;;;;-4.75;78.61;98939.70;250168;1148;23363;-79
2021/01/15 19:42:26;;;;;;;32.37;14.80;;;;;;;-4.83;78.76;98946.67;250161;1148;22969;-79
2021/01/15 19:47:29;;;;;;;37.83;17.63;;;;;;;-4.84;78.77;98959.89;250043;1148;22973;-79
2021/01/15 19:52:40;;;;;;;40.30;18.62;;;;;;;-4.82;78.86;98952.70;250297;1147;22946;-76
2021/01/15 19:57:47;;;;;;;36.40;16.95;;;;;;;-4.79;79.01;98956.75;250176;1148;23047;-79
2021/01/15 20:02:49;;;;;;;35.93;15.43;;;;;;;-4.79;78.91;98961.98;250314;1148;22918;-79
2021/01/15 20:07:51;;;;;;;32.87;13.77;;;;;;;-4.79;79.33;98951.52;250320;1148;22952;-79
2021/01/15 20:12:54;;;;;;;35.57;16.47;;;;;;;-4.74;80.02;98956.98;250179;1148;22983;-80
2021/01/15 20:17:56;;;;;;;32.85;13.80;;;;;;;-4.65;79.77;98958.51;250452;1148;23067;-79
2021/01/15 20:23:00;;;;;;;29.20;13.47;;;;;;;-4.61;79.88;98957.14;249992;1148;22952;-81
2021/01/15 20:28:08;;;;;;;29.70;13.77;;;;;;;-4.65;79.83;98964.53;250531;1147;23024;-78
2021/01/15 20:33:11;;;;;;;30.25;13.75;;;;;;;-4.70;80.01;98959.07;250540;1147;22778;-78
2021/01/15 20:38:13;;;;;;;32.70;15.33;;;;;;;-4.77;80.13;98963.42;250197;1148;22956;-79
2021/01/15 20:43:15;;;;;;;33.10;15.00;;;;;;;-4.84;80.03;98970.35;250261;1151;23013;-78
2021/01/15 20:48:18;;;;;;;25.93;12.53;;;;;;;-4.90;79.75;98971.09;250194;1148;22956;-79
2021/01/15 20:53:20;;;;;;;25.90;12.07;;;;;;;-4.89;80.40;98977.95;250382;1148;22976;-80
2021/01/15 20:58:23;;;;;;;23.20;10.20;;;;;;;-4.89;80.17;98973.52;250221;1148;22967;-80
2021/01/15 21:03:25;;;;;;;19.70;9.90;;;;;;;-4.82;80.41;98981.45;250290;1148;22951;-80
2021/01/15 21:08:27;;;;;;;22.33;10.23;;;;;;;-4.72;80.49;98991.61;251200;1148;23027;-79
2021/01/15 21:13:29;;;;;;;14.73;7.73;;;;;;;-4.58;80.42;98982.12;249977;1147;22951;-81
2021/01/15 21:18:31;;;;;;;23.50;10.67;;;;;;;-4.47;80.73;98985.05;250686;1148;22925;-79
2021/01/15 21:23:34;;;;;;;16.57;8.20;;;;;;;-4.38;80.74;98996.22;250194;1148;22953;-79
2021/01/15 21:28:36;;;;;;;17.90;8.67;;;;;;;-4.32;81.01;98990.23;250089;1148;23097;-79
2021/01/15 21:33:41;;;;;;;21.77;9.07;;;;;;;-4.30;80.55;98990.05;250140;1148;22951;-78
2021/01/15 21:38:44;;;;;;;13.37;7.00;;;;;;;-4.27;80.37;98979.20;250467;1147;23154;-77
2021/01/15 21:43:47;;;;;;;17.25;9.30;;;;;;;-4.26;80.27;98990.48;250425;1148;22956;-79
2021/01/15 21:48:49;;;;;;;16.37;8.40;;;;;;;-4.19;80.53;98992.16;250097;1148;23065;-79
2021/01/15 21:53:53;;;;;;;17.07;8.00;;;;;;;-4.12;80.52;98989.61;250698;1148;22948;-79
2021/01/15 21:58:55;;;;;;;16.90;8.90;;;;;;;-4.06;80.71;98986.23;249948;1148;22945;-78
2021/01/15 22:03:57;;;;;;;20.10;8.53;;;;;;;-4.00;80.76;98998.58;250111;1148;22973;-79
2021/01/15 22:08:59;;;;;;;18.47;8.60;;;;;;;-3.92;80.60;98989.77;250191;1148;22972;-79
2021/01/15 22:14:05;;;;;;;19.87;9.67;;;;;;;-3.88;80.64;98988.40;250174;1148;23125;-79
2021/01/15 22:19:07;;;;;;;19.93;9.47;;;;;;;-3.85;80.62;98992.45;250312;1148;23053;-80
2021/01/15 22:24:10;;;;;;;26.00;10.73;;;;;;;-3.82;80.68;98994.69;250199;1148;22897;-79
2021/01/15 22:29:25;;;;;;;22.83;10.73;;;;;;;-3.81;80.79;98984.02;250260;1148;22948;-80
2021/01/15 22:34:28;;;;;;;23.47;12.43;;;;;;;-3.79;80.75;98981.23;250188;1148;23044;-79
2021/01/15 22:39:30;;;;;;;24.60;10.80;;;;;;;-3.74;80.83;98997.17;250192;1148;22970;-78
2021/01/15 22:44:32;;;;;;;23.40;11.07;;;;;;;-3.68;80.78;99004.28;250247;1148;22974;-79
2021/01/15 22:49:34;;;;;;;22.03;10.33;;;;;;;-3.60;81.39;99008.55;250322;1147;23393;-79
2021/01/15 22:54:36;;;;;;;23.23;11.37;;;;;;;-3.54;81.26;99006.98;250384;1148;23044;-77
2021/01/15 22:59:38;;;;;;;20.13;9.70;;;;;;;-3.48;80.90;99014.09;250145;1148;23142;-76
2021/01/15 23:04:40;;;;;;;21.47;10.67;;;;;;;-3.46;80.69;99012.08;250168;1148;22949;-79
2021/01/15 23:09:43;;;;;;;21.15;10.30;;;;;;;-3.48;80.48;99006.23;250158;1148;22952;-78
2021/01/15 23:14:45;;;;;;;24.80;11.37;;;;;;;-3.50;80.34;99005.60;250079;1148;22984;-79